Weather at Sultan Mahmud Badaruddin II Airport

Public forecast

Using degrees Celsius for public forecast. Weather courtesy of forecast.io.

Current aviation weather report (METAR) for Sultan Mahmud Badaruddin II Airport

2024/06/21 16:00 (retrieved 34 minutes ago)

WIPP 211600Z 09004KT 7000 FEW010 28/25 Q1011 NOSIG

Aviation forecast (TAF) for Sultan Mahmud Badaruddin II Airport

2024/06/21 12:00 (retrieved 5 hours ago)

TAF TAF WIPP 211100Z 2112/2212 15007KT 9999 SCT010 TEMPO 2120/2124 3000 BR